Time;durP1;ratioP1;P1;durP2;ratioP2;P2;SDS_P1;SDS_P2;PMS_P1;PMS_P2;Temp;Humidity;BMP_temperature;BMP_pressure;BME280_temperature;BME280_humidity;BME280_pressure;Samples;Min_cycle;Max_cycle;Signal;HPM_P1;HPM_P2
2022/07/17 00:00:00;;;;;;;;;3.00;3.00;;;;;23.78;34.76;101909.00;5001000;28;45550;-65
2022/07/17 00:02:25;;;;;;;;;3.00;3.00;;;;;24.13;34.53;101953.22;5017750;28;45475;-64
2022/07/17 00:04:50;;;;;;;;;5.00;5.00;;;;;24.01;34.87;101937.72;5018738;28;46383;-64
2022/07/17 00:07:16;;;;;;;;;3.00;3.00;;;;;24.00;34.94;101946.91;5018638;28;45475;-63
2022/07/17 00:09:41;;;;;;;;;4.00;3.00;;;;;24.03;35.16;101941.06;5017430;28;45552;-64
2022/07/17 00:12:06;;;;;;;;;5.67;4.00;;;;;24.04;34.71;101961.78;5019154;28;45447;-64
2022/07/17 00:14:33;;;;;;;;;5.67;4.00;;;;;24.01;35.46;101956.72;5018656;28;47772;-63
2022/07/17 00:16:58;;;;;;;;;4.00;4.00;;;;;23.97;35.46;101959.84;5000311;28;45453;-63
2022/07/17 00:19:25;;;;;;;;;3.00;2.00;;;;;23.96;35.28;101952.75;5018616;28;45540;-64
2022/07/17 00:21:50;;;;;;;;;4.00;4.00;;;;;23.94;35.35;101951.28;5018819;28;45307;-64
2022/07/17 00:24:19;;;;;;;;;4.33;4.33;;;;;23.69;35.17;101923.81;5018222;28;46081;-64
2022/07/17 00:26:49;;;;;;;;;3.33;3.33;;;;;23.90;35.80;101959.00;5018433;28;45505;-63
2022/07/17 00:29:15;;;;;;;;;3.00;3.00;;;;;23.36;35.62;101863.91;5018550;28;45349;-63
2022/07/17 00:31:40;;;;;;;;;4.67;4.00;;;;;23.70;35.40;101932.81;5018612;28;45390;-63
2022/07/17 00:34:06;;;;;;;;;4.00;3.00;;;;;23.84;35.50;101961.69;5000746;28;47757;-64
2022/07/17 00:36:31;;;;;;;;;2.00;2.00;;;;;23.72;35.95;101950.56;5016804;28;45520;-63
2022/07/17 00:38:56;;;;;;;;;4.00;4.00;;;;;23.78;35.57;101960.59;5015965;28;45519;-65
2022/07/17 00:41:22;;;;;;;;;4.33;3.00;;;;;23.53;35.92;101919.53;5016161;28;45358;-65
2022/07/17 00:43:47;;;;;;;;;2.00;1.00;;;;;23.69;35.50;101942.81;5015894;28;46455;-62
2022/07/17 00:46:13;;;;;;;;;3.67;3.67;;;;;23.77;35.82;101950.78;5015532;28;45537;-63
2022/07/17 00:48:38;;;;;;;;;3.00;3.00;;;;;23.71;35.66;101932.59;5014534;28;45396;-64
2022/07/17 00:51:04;;;;;;;;;3.00;3.00;;;;;23.66;35.72;101940.50;5016227;28;45432;-64
2022/07/17 00:53:33;;;;;;;;;6.67;4.00;;;;;23.49;35.92;101929.09;5017895;28;46585;-62
2022/07/17 00:56:01;;;;;;;;;4.33;4.33;;;;;23.68;35.54;101962.88;5000159;28;46092;-65
2022/07/17 00:58:29;;;;;;;;;3.67;3.67;;;;;23.69;35.70;101964.53;5018281;28;45490;-63
2022/07/17 01:00:55;;;;;;;;;4.00;4.00;;;;;23.69;35.99;101956.41;5000518;28;45592;-62
2022/07/17 01:03:22;;;;;;;;;2.67;2.67;;;;;23.69;35.98;101956.41;5017751;28;45911;-62
2022/07/17 01:05:48;;;;;;;;;4.67;4.00;;;;;23.41;36.08;101928.41;5017586;28;45384;-63
2022/07/17 01:08:13;;;;;;;;;5.67;4.00;;;;;23.59;35.76;101948.59;4999997;28;45519;-63
2022/07/17 01:10:40;;;;;;;;;3.33;3.33;;;;;23.60;35.95;101963.00;5018288;28;45277;-65
2022/07/17 01:13:06;;;;;;;;;2.00;2.00;;;;;23.61;35.99;101964.69;5017492;28;47805;-63
2022/07/17 01:15:35;;;;;;;;;3.00;3.00;;;;;23.58;36.41;101965.94;4999465;28;45259;-64
2022/07/17 01:18:04;;;;;;;;;6.00;4.00;;;;;23.58;36.20;101960.50;5016442;28;45394;-64
2022/07/17 01:20:30;;;;;;;;;7.33;5.67;;;;;23.63;35.65;101968.91;5017647;28;45432;-64
2022/07/17 01:22:55;;;;;;;;;3.67;3.67;;;;;23.55;36.13;101950.03;5017168;28;45703;-63
2022/07/17 01:25:22;;;;;;;;;4.00;4.00;;;;;23.59;36.10;101962.19;5017517;28;45246;-63
2022/07/17 01:27:48;;;;;;;;;6.00;5.00;;;;;23.37;36.10;101923.41;5017676;28;45204;-63
2022/07/17 01:30:13;;;;;;;;;4.33;4.00;;;;;23.58;35.95;101959.66;5016811;28;45464;-63
2022/07/17 01:32:41;;;;;;;;;6.00;6.00;;;;;23.53;36.51;101951.25;5017306;28;46481;-63
2022/07/17 01:35:08;;;;;;;;;4.67;4.67;;;;;23.46;36.35;101953.94;5017467;28;45390;-64
2022/07/17 01:37:34;;;;;;;;;4.00;4.00;;;;;23.56;36.49;101962.59;5017350;28;45563;-63
2022/07/17 01:40:03;;;;;;;;;6.00;6.00;;;;;23.45;36.14;101948.72;5017321;28;45473;-63
2022/07/17 01:42:28;;;;;;;;;5.00;4.00;;;;;23.51;36.21;101961.47;5016968;28;46939;-64
2022/07/17 01:44:55;;;;;;;;;4.33;4.33;;;;;23.49;36.47;101955.41;5017236;28;45447;-63
2022/07/17 01:47:22;;;;;;;;;5.00;3.67;;;;;23.43;36.17;101950.78;5017344;28;45383;-63
2022/07/17 01:49:51;;;;;;;;;4.67;4.67;;;;;23.41;36.42;101955.56;5017440;28;45528;-63
2022/07/17 01:52:18;;;;;;;;;6.00;6.00;;;;;23.42;36.22;101957.22;5017181;28;45665;-64
2022/07/17 01:54:44;;;;;;;;;3.67;3.67;;;;;23.42;36.19;101951.81;5017342;28;45268;-64
2022/07/17 01:57:10;;;;;;;;;5.00;5.00;;;;;23.30;35.97;101936.09;5017583;28;45234;-63
2022/07/17 01:59:36;;;;;;;;;3.67;3.67;;;;;23.16;36.06;101907.19;5017128;28;45559;-64
2022/07/17 02:02:04;;;;;;;;;3.67;3.67;;;;;23.37;36.19;101942.38;5016592;28;46719;-64
2022/07/17 02:04:30;;;;;;;;;3.00;3.00;;;;;23.31;36.29;101940.47;5017052;28;45397;-63
2022/07/17 02:06:55;;;;;;;;;4.00;4.00;;;;;23.31;35.96;101924.19;5016980;28;45479;-64
2022/07/17 02:09:22;;;;;;;;;5.67;5.33;;;;;23.26;36.25;101923.97;4999313;28;45664;-64
2022/07/17 02:11:48;;;;;;;;;3.00;3.00;;;;;23.19;36.30;101914.94;5016794;28;46513;-63
2022/07/17 02:14:13;;;;;;;;;4.00;3.00;;;;;23.31;36.41;101945.06;5017016;28;45442;-64
2022/07/17 02:16:39;;;;;;;;;4.00;4.00;;;;;23.05;36.21;101905.03;5016937;28;45341;-62
2022/07/17 02:19:04;;;;;;;;;2.00;2.00;;;;;23.14;36.19;101930.97;4999182;28;45295;-63
2022/07/17 02:21:30;;;;;;;;;3.67;3.67;;;;;23.00;36.43;101923.75;5016762;28;46288;-63
2022/07/17 02:23:55;;;;;;;;;2.00;2.00;;;;;22.99;36.63;101922.09;5016791;28;45462;-62
2022/07/17 02:26:21;;;;;;;;;4.00;4.00;;;;;23.04;37.04;101934.03;5016892;28;45525;-62
2022/07/17 02:28:46;;;;;;;;;3.33;3.33;;;;;22.88;36.96;101914.50;5016933;28;45384;-62
2022/07/17 02:31:11;;;;;;;;;4.00;3.00;;;;;22.91;36.48;101927.66;5016417;28;47558;-64
2022/07/17 02:33:37;;;;;;;;;3.00;3.00;;;;;22.90;36.96;101929.53;5016392;28;52856;-63
2022/07/17 02:36:03;;;;;;;;;4.33;4.33;;;;;22.85;36.74;101931.19;5016716;28;45475;-63
2022/07/17 02:38:28;;;;;;;;;5.00;4.00;;;;;22.64;37.27;101900.31;5015489;28;45572;-64
2022/07/17 02:40:53;;;;;;;;;5.00;5.00;;;;;22.77;37.11;101932.94;5018069;28;46601;-63
2022/07/17 02:43:19;;;;;;;;;3.00;3.00;;;;;22.72;37.29;101915.59;5002329;28;45361;-63
2022/07/17 02:45:44;;;;;;;;;5.00;4.00;;;;;22.22;37.06;101843.41;5020043;28;45452;-63
2022/07/17 02:48:09;;;;;;;;;4.00;3.67;;;;;22.22;37.13;101840.69;5002103;28;45615;-62
2022/07/17 02:50:35;;;;;;;;;3.00;3.00;;;;;22.70;37.08;101923.91;5019372;28;57645;-63
2022/07/17 02:53:01;;;;;;;;;3.00;2.67;;;;;22.69;37.38;101922.25;5019655;28;45325;-64
2022/07/17 02:55:26;;;;;;;;;2.00;2.00;;;;;22.70;37.59;101921.22;5020042;28;45373;-63
2022/07/17 02:57:51;;;;;;;;;3.67;3.33;;;;;22.75;37.27;101928.75;5020043;28;45616;-63
2022/07/17 03:00:17;;;;;;;;;3.67;3.00;;;;;22.75;37.07;101928.75;5019639;28;46297;-63
2022/07/17 03:02:44;;;;;;;;;4.67;3.00;;;;;22.55;37.22;101893.34;5018430;28;45542;-63
2022/07/17 03:05:10;;;;;;;;;2.00;2.00;;;;;22.52;37.40;101891.03;5020379;28;45292;-63
2022/07/17 03:07:36;;;;;;;;;4.33;4.00;;;;;22.52;36.90;101891.03;5020347;28;45431;-64
2022/07/17 03:10:02;;;;;;;;;5.00;2.67;;;;;22.67;37.17;101918.91;5019874;28;45655;-63
2022/07/17 03:12:27;;;;;;;;;4.00;2.67;;;;;22.63;37.18;101917.63;5019682;28;45423;-64
2022/07/17 03:14:53;;;;;;;;;3.00;3.00;;;;;22.54;37.56;101909.78;5019818;28;45491;-64
2022/07/17 03:17:18;;;;;;;;;3.00;3.00;;;;;22.55;37.67;101915.03;5020213;28;45295;-63
2022/07/17 03:19:43;;;;;;;;;3.00;3.00;;;;;22.53;37.91;101922.50;5001672;28;47669;-64
2022/07/17 03:22:09;;;;;;;;;2.00;2.00;;;;;22.02;37.40;101835.06;5019828;28;45389;-64
2022/07/17 03:24:34;;;;;;;;;2.00;2.00;;;;;22.46;37.52;101911.63;5001490;28;45507;-63
2022/07/17 03:26:59;;;;;;;;;2.67;2.67;;;;;22.41;37.64;101913.22;5019786;28;45551;-62
2022/07/17 03:29:25;;;;;;;;;4.00;2.67;;;;;22.45;37.42;101909.09;5019153;28;46526;-62
2022/07/17 03:31:50;;;;;;;;;2.33;2.33;;;;;22.49;37.74;101931.22;5019406;28;45374;-63
2022/07/17 03:34:16;;;;;;;;;2.00;2.00;;;;;21.58;37.48;101775.66;5019484;28;45338;-64
2022/07/17 03:36:42;;;;;;;;;2.67;2.67;;;;;22.43;38.23;101919.31;5001838;28;45378;-64
2022/07/17 03:39:07;;;;;;;;;4.00;2.00;;;;;22.15;37.80;101884.81;5017715;28;47315;-62
2022/07/17 03:41:33;;;;;;;;;5.00;3.00;;;;;22.39;37.40;101923.41;5019203;28;45259;-62
2022/07/17 03:43:58;;;;;;;;;3.67;2.67;;;;;22.42;37.46;101936.56;5019245;28;45222;-63
2022/07/17 03:46:24;;;;;;;;;3.00;3.00;;;;;22.41;37.96;101940.31;5019359;28;45651;-63
2022/07/17 03:48:49;;;;;;;;;2.00;2.00;;;;;22.35;37.85;101927.53;5018861;28;45254;-63
2022/07/17 03:51:15;;;;;;;;;3.00;2.00;;;;;22.45;37.53;101936.19;5018930;28;45570;-63
2022/07/17 03:53:41;;;;;;;;;4.33;4.00;;;;;22.42;37.69;101931.97;5018226;28;45389;-63
2022/07/17 03:56:07;;;;;;;;;3.33;2.00;;;;;22.32;37.82;101933.34;5019301;28;45411;-64
2022/07/17 03:58:33;;;;;;;;;3.00;3.00;;;;;22.38;38.14;101935.28;5018792;28;46150;-64
2022/07/17 04:00:58;;;;;;;;;4.00;4.00;;;;;21.73;37.63;101838.72;5018873;28;45422;-63
2022/07/17 04:03:24;;;;;;;;;4.00;3.00;;;;;22.27;38.00;101927.66;5018846;28;45595;-64
2022/07/17 04:05:50;;;;;;;;;2.00;2.00;;;;;22.35;37.49;101935.66;5019060;28;45311;-63
2022/07/17 04:08:15;;;;;;;;;3.00;3.00;;;;;22.35;37.96;101930.25;5018668;28;46384;-63
2022/07/17 04:10:42;;;;;;;;;2.00;2.00;;;;;22.29;38.18;101931.03;5018605;28;45495;-63
2022/07/17 04:13:07;;;;;;;;;3.67;3.33;;;;;22.33;38.25;101930.44;5018993;28;45275;-63
2022/07/17 04:18:17;;;;;;;;;2.00;2.00;;;;;22.35;38.46;101954.63;5018412;28;45791;-62
2022/07/17 04:20:42;;;;;;;;;3.67;3.67;;;;;22.32;38.46;101928.75;5018431;28;45259;-61
2022/07/17 04:23:08;;;;;;;;;2.00;2.00;;;;;22.21;38.62;101928.41;5000615;28;45260;-64
2022/07/17 04:25:34;;;;;;;;;3.00;2.00;;;;;22.34;38.39;101952.97;5018720;28;45185;-63
2022/07/17 04:27:59;;;;;;;;;2.00;2.00;;;;;22.33;38.64;101964.81;5017028;28;48188;-64
2022/07/17 04:30:25;;;;;;;;;3.33;3.33;;;;;22.35;38.59;101976.31;5018253;28;45255;-63
2022/07/17 04:32:50;;;;;;;;;3.00;3.00;;;;;22.31;38.24;101962.31;5018306;28;45168;-63
2022/07/17 04:35:15;;;;;;;;;5.33;4.00;;;;;22.38;38.48;101965.09;5018439;28;45444;-64
2022/07/17 04:37:41;;;;;;;;;3.00;3.00;;;;;22.40;38.10;101979.28;5018327;28;46317;-63
2022/07/17 04:40:07;;;;;;;;;3.33;3.33;;;;;22.23;38.65;101945.34;5018133;28;45505;-63
2022/07/17 04:42:32;;;;;;;;;4.00;4.00;;;;;22.42;38.06;101977.22;5018385;28;45308;-64
2022/07/17 04:44:57;;;;;;;;;3.00;3.00;;;;;22.39;38.59;101980.31;5018383;28;45509;-62
2022/07/17 04:47:23;;;;;;;;;4.00;4.00;;;;;22.14;38.43;101950.88;5017504;28;46557;-63
2022/07/17 04:49:48;;;;;;;;;5.00;4.00;;;;;22.39;38.50;101997.41;5017965;28;45305;-63
2022/07/17 04:52:13;;;;;;;;;2.67;2.67;;;;;22.43;38.42;101997.88;5018087;28;45278;-63
2022/07/17 04:54:39;;;;;;;;;3.00;3.00;;;;;22.44;38.25;101999.56;5018344;28;45571;-64
2022/07/17 04:57:04;;;;;;;;;3.00;3.00;;;;;22.38;38.50;102005.72;5018110;28;46377;-63
2022/07/17 04:59:30;;;;;;;;;3.00;3.00;;;;;22.34;38.63;101991.72;5000131;28;45373;-63
2022/07/17 05:01:55;;;;;;;;;3.33;3.33;;;;;22.25;38.75;101973.09;5017807;28;45376;-63
2022/07/17 05:04:20;;;;;;;;;3.33;3.33;;;;;22.39;38.91;101996.56;5016935;28;45442;-65
2022/07/17 05:06:46;;;;;;;;;6.67;6.33;;;;;22.39;38.85;101996.56;5015705;28;47449;-63
2022/07/17 05:09:12;;;;;;;;;11.33;11.33;;;;;22.30;38.51;101984.19;5018115;28;45304;-63
2022/07/17 05:11:37;;;;;;;;;14.33;10.33;;;;;22.41;38.82;101999.91;5017952;28;45207;-62
2022/07/17 05:14:03;;;;;;;;;11.00;9.67;;;;;22.29;38.68;101988.75;5018058;28;45428;-62
2022/07/17 05:16:28;;;;;;;;;12.33;11.67;;;;;22.19;38.49;101973.81;5017565;28;46688;-63
2022/07/17 05:18:54;;;;;;;;;9.00;8.00;;;;;21.94;38.96;101947.03;5017609;28;45221;-63
2022/07/17 05:21:19;;;;;;;;;12.00;10.67;;;;;22.29;38.52;102015.84;5017412;28;45339;-64
2022/07/17 05:23:45;;;;;;;;;8.67;8.67;;;;;22.26;38.98;102012.69;5018051;28;45452;-63
2022/07/17 05:26:10;;;;;;;;;9.00;8.00;;;;;21.91;39.28;101958.25;5016367;28;46538;-63
2022/07/17 05:28:36;;;;;;;;;7.33;7.33;;;;;22.13;38.88;102000.66;5017365;28;45523;-64
2022/07/17 05:31:01;;;;;;;;;6.00;6.00;;;;;22.12;39.21;101992.72;5017555;28;45460;-64
2022/07/17 05:33:27;;;;;;;;;6.33;6.33;;;;;22.24;39.21;102003.91;4999961;28;45410;-63
2022/07/17 05:35:52;;;;;;;;;5.67;4.33;;;;;22.25;39.17;102003.72;5017142;28;46953;-63
2022/07/17 05:38:18;;;;;;;;;6.33;5.67;;;;;22.24;38.94;102021.00;5017113;28;45448;-63
2022/07/17 05:40:43;;;;;;;;;5.00;4.67;;;;;22.26;39.24;102008.09;5017469;28;45480;-64
2022/07/17 05:43:08;;;;;;;;;4.67;4.67;;;;;22.30;39.36;102013.97;5017724;28;45442;-63
2022/07/17 05:45:34;;;;;;;;;7.67;5.67;;;;;22.24;39.01;101993.91;5016557;28;46677;-63
2022/07/17 05:47:59;;;;;;;;;5.33;5.33;;;;;22.38;38.90;102006.56;5017302;28;45356;-62
2022/07/17 05:50:25;;;;;;;;;4.67;4.67;;;;;22.41;38.96;102016.19;5017036;28;45266;-63
2022/07/17 05:52:50;;;;;;;;;5.00;5.00;;;;;22.47;39.01;102012.72;5017337;28;45349;-63
2022/07/17 05:55:16;;;;;;;;;5.00;5.00;;;;;22.46;38.62;102008.34;5017051;28;45935;-62
2022/07/17 05:57:41;;;;;;;;;6.00;6.00;;;;;22.02;38.77;101938.81;5016855;28;45397;-62
2022/07/17 06:00:07;;;;;;;;;5.33;5.00;;;;;22.59;38.37;102013.03;4999254;28;45609;-62
2022/07/17 06:02:32;;;;;;;;;2.67;2.67;;;;;22.60;38.55;102012.00;5017214;28;45236;-62
2022/07/17 06:04:58;;;;;;;;;5.00;5.00;;;;;22.67;38.45;102011.06;5017021;28;45494;-64
2022/07/17 06:07:23;;;;;;;;;3.00;3.00;;;;;22.83;38.49;102017.31;5017061;28;45266;-65
2022/07/17 06:09:48;;;;;;;;;3.00;3.00;;;;;23.13;37.97;102021.53;5017306;28;45237;-62
2022/07/17 06:12:14;;;;;;;;;3.00;3.00;;;;;23.33;37.14;101999.97;4999706;28;45509;-63
2022/07/17 06:14:39;;;;;;;;;2.00;2.00;;;;;23.80;37.07;102012.84;5015495;28;51743;-62
2022/07/17 06:17:04;;;;;;;;;2.33;2.33;;;;;24.22;36.18;102024.53;5020808;28;45179;-62
2022/07/17 06:19:29;;;;;;;;;5.00;3.67;;;;;24.51;35.10;102007.94;5020565;28;45291;-64
2022/07/17 06:21:55;;;;;;;;;5.00;5.00;;;;;24.30;34.81;101931.16;5019629;28;45365;-64
2022/07/17 06:24:20;;;;;;;;;6.33;6.33;;;;;25.15;34.14;102012.03;5019193;28;47340;-64
2022/07/17 06:26:46;;;;;;;;;8.00;6.67;;;;;25.38;33.45;102006.97;5020426;28;45521;-64
2022/07/17 06:29:11;;;;;;;;;4.33;4.33;;;;;25.65;33.40;102015.97;5020253;28;45436;-63
2022/07/17 06:31:36;;;;;;;;;8.33;7.33;;;;;25.88;32.74;102007.34;5020545;28;45330;-61
2022/07/17 06:34:02;;;;;;;;;6.00;6.00;;;;;25.44;32.12;101901.84;5020289;28;46264;-62
2022/07/17 06:36:27;;;;;;;;;9.00;8.00;;;;;26.32;32.02;101998.31;4986016;28;46219;-63
2022/07/17 06:38:53;;;;;;;;;6.00;5.67;;;;;26.59;31.83;102009.09;5020331;28;45469;-64
2022/07/17 06:41:18;;;;;;;;;7.00;5.33;;;;;26.79;31.12;102020.72;5002575;28;45425;-62
2022/07/17 06:43:43;;;;;;;;;4.33;4.33;;;;;26.81;30.76;101996.78;5020038;28;47261;-62
2022/07/17 06:46:09;;;;;;;;;8.33;5.33;;;;;26.97;30.32;102007.16;5019934;28;45635;-63
2022/07/17 06:48:34;;;;;;;;;3.00;3.00;;;;;27.01;29.73;101993.09;5020250;28;45465;-63
2022/07/17 06:50:59;;;;;;;;;4.33;3.00;;;;;26.92;29.79;101982.44;5019735;28;45389;-63
2022/07/17 06:53:25;;;;;;;;;3.67;3.33;;;;;27.05;30.11;102002.53;5019731;28;46737;-63
2022/07/17 06:55:50;;;;;;;;;4.00;4.00;;;;;27.05;29.52;101995.19;5019673;28;45536;-63
2022/07/17 06:58:16;;;;;;;;;3.33;3.00;;;;;27.16;30.14;102004.50;5020148;28;45276;-62
2022/07/17 07:00:41;;;;;;;;;2.33;2.33;;;;;27.08;29.47;101991.16;5020164;28;45326;-63
2022/07/17 07:03:07;;;;;;;;;4.67;3.00;;;;;26.94;29.81;101988.50;5019819;28;47353;-64
2022/07/17 07:05:33;;;;;;;;;2.33;2.33;;;;;27.15;29.90;102013.75;5001887;28;45328;-63
2022/07/17 07:07:58;;;;;;;;;2.00;2.00;;;;;27.18;28.88;102005.13;5019955;28;45532;-63
2022/07/17 07:10:23;;;;;;;;;3.00;3.00;;;;;27.21;29.24;102002.78;5019762;28;45216;-64
2022/07/17 07:12:49;;;;;;;;;4.00;4.00;;;;;27.25;29.70;101997.72;5019628;28;46485;-64
2022/07/17 07:15:14;;;;;;;;;3.00;3.00;;;;;27.36;29.42;101994.25;5001891;28;45468;-64
2022/07/17 07:17:40;;;;;;;;;3.67;3.00;;;;;27.58;29.79;101990.03;5019945;28;45197;-64
2022/07/17 07:20:06;;;;;;;;;4.00;4.00;;;;;27.78;28.51;101983.53;5001813;28;45572;-63
2022/07/17 07:22:32;;;;;;;;;3.67;2.33;;;;;28.14;28.48;102019.03;5019501;28;46500;-63
2022/07/17 07:24:58;;;;;;;;;3.00;3.00;;;;;28.18;28.01;102003.84;5019618;28;45313;-64
2022/07/17 07:27:23;;;;;;;;;3.33;2.67;;;;;28.26;28.04;102019.16;5018613;28;45259;-63
2022/07/17 07:29:49;;;;;;;;;4.00;3.00;;;;;28.03;28.63;101995.22;5019549;28;45503;-62
2022/07/17 07:32:15;;;;;;;;;2.00;2.00;;;;;28.22;28.51;102009.69;5019377;28;46594;-63
2022/07/17 07:34:40;;;;;;;;;4.00;4.00;;;;;28.39;27.81;102009.91;5019289;28;45348;-62
2022/07/17 07:37:06;;;;;;;;;4.00;2.67;;;;;28.38;28.44;101981.72;5019565;28;45295;-62
2022/07/17 07:39:31;;;;;;;;;3.00;3.00;;;;;28.50;28.31;101989.97;5019553;28;45627;-62
2022/07/17 07:41:56;;;;;;;;;2.00;2.00;;;;;28.65;28.01;102003.25;5019233;28;45772;-63
2022/07/17 07:44:22;;;;;;;;;2.00;2.00;;;;;28.28;27.40;101931.41;5001235;28;45429;-65
2022/07/17 07:46:48;;;;;;;;;2.00;2.00;;;;;28.81;27.69;101994.31;5018996;28;45415;-64
2022/07/17 07:49:15;;;;;;;;;2.67;2.67;;;;;28.35;27.08;101910.22;5019246;28;45493;-63
2022/07/17 07:51:40;;;;;;;;;3.00;3.00;;;;;28.78;27.20;101965.53;5019056;28;45941;-63
2022/07/17 07:54:06;;;;;;;;;1.67;1.67;;;;;29.00;27.18;101973.19;5018930;28;45555;-64
2022/07/17 07:56:31;;;;;;;;;2.00;2.00;;;;;29.26;26.52;102000.16;5019270;28;45349;-64
2022/07/17 07:58:57;;;;;;;;;7.00;4.00;;;;;29.35;26.37;101993.22;5001605;28;45535;-64
2022/07/17 08:01:22;;;;;;;;;3.00;3.00;;;;;29.36;26.67;102005.84;5018874;28;47334;-64
2022/07/17 08:03:48;;;;;;;;;3.00;3.00;;;;;29.27;26.51;101974.41;5019131;28;45263;-63
2022/07/17 08:06:14;;;;;;;;;3.67;3.33;;;;;29.60;26.87;102011.34;5019064;28;45237;-63
2022/07/17 08:08:40;;;;;;;;;1.00;1.00;;;;;29.68;25.75;102003.59;5019000;28;45479;-64
2022/07/17 08:11:05;;;;;;;;;2.33;2.33;;;;;29.80;25.97;101991.75;5018785;28;46656;-63
2022/07/17 08:13:31;;;;;;;;;3.00;3.00;;;;;29.86;25.53;101988.06;5018806;28;45314;-63
2022/07/17 08:15:58;;;;;;;;;2.33;2.33;;;;;29.97;25.93;102007.22;5017379;28;45376;-65
2022/07/17 08:18:25;;;;;;;;;2.00;2.00;;;;;29.92;25.88;101992.56;5018897;28;45462;-63
2022/07/17 08:20:51;;;;;;;;;3.00;2.00;;;;;30.13;25.65;101988.38;5017075;28;46628;-62
2022/07/17 08:23:16;;;;;;;;;4.00;2.67;;;;;30.42;25.67;102002.91;5018573;28;45362;-63
2022/07/17 08:25:43;;;;;;;;;3.00;3.00;;;;;30.44;24.70;101984.31;5018654;28;45305;-62
2022/07/17 08:28:09;;;;;;;;;3.67;3.00;;;;;30.42;24.62;101981.78;5018669;28;45553;-63
2022/07/17 08:30:36;;;;;;;;;4.00;2.00;;;;;29.99;24.79;101928.28;5018192;28;46466;-62
2022/07/17 08:33:03;;;;;;;;;4.67;3.67;;;;;30.39;24.94;101982.28;5018202;28;45281;-63
2022/07/17 08:35:28;;;;;;;;;2.00;2.00;;;;;30.64;25.05;102000.34;5018450;28;45309;-63
2022/07/17 08:37:53;;;;;;;;;6.33;4.67;;;;;30.35;24.47;101919.91;5018223;28;45198;-63
2022/07/17 08:40:29;;;;;;;;;3.00;2.67;;;;;30.91;23.93;101997.78;5018488;28;46468;-64
2022/07/17 08:42:56;;;;;;;;;3.67;3.00;;;;;31.02;24.08;101999.59;5018256;28;45255;-64
2022/07/17 08:45:22;;;;;;;;;1.00;0.00;;;;;30.08;23.79;101842.91;5017978;28;45278;-63
2022/07/17 08:47:50;;;;;;;;;2.33;2.33;;;;;31.04;24.09;102002.94;5018278;28;45333;-64
2022/07/17 08:50:18;;;;;;;;;4.00;3.00;;;;;30.31;23.76;101870.19;5017574;28;45724;-64
2022/07/17 08:52:43;;;;;;;;;2.00;2.00;;;;;31.17;23.53;101997.97;5017781;28;45357;-62
2022/07/17 08:55:13;;;;;;;;;4.00;4.00;;;;;31.08;23.33;101963.72;5017788;28;45598;-62
2022/07/17 08:57:44;;;;;;;;;2.67;2.67;;;;;31.36;23.89;101990.28;5016818;28;45476;-63
2022/07/17 09:00:12;;;;;;;;;4.00;4.00;;;;;31.47;23.64;101961.03;5017410;28;46681;-63
2022/07/17 09:02:39;;;;;;;;;5.67;4.33;;;;;31.91;22.86;101991.31;5017732;28;45396;-63
2022/07/17 09:05:06;;;;;;;;;3.00;3.00;;;;;32.16;22.57;101999.88;5017970;28;45584;-63
2022/07/17 09:07:32;;;;;;;;;4.00;3.00;;;;;32.26;21.92;101991.78;5017882;28;45198;-65
2022/07/17 09:09:58;;;;;;;;;4.67;2.00;;;;;32.13;22.39;101972.88;5017334;28;47010;-63
2022/07/17 09:12:28;;;;;;;;;4.00;2.67;;;;;32.22;22.63;101987.81;5017373;28;45508;-64
2022/07/17 09:14:55;;;;;;;;;3.00;2.00;;;;;32.27;22.45;101985.16;5017546;28;45526;-63
2022/07/17 09:17:20;;;;;;;;;2.00;2.00;;;;;32.34;22.43;101982.22;5017728;28;45337;-64
2022/07/17 09:19:46;;;;;;;;;5.33;4.00;;;;;32.41;22.52;101993.81;5017344;28;45647;-67
2022/07/17 09:22:16;;;;;;;;;4.00;2.67;;;;;32.30;23.01;101992.06;5016000;28;45644;-65
2022/07/17 09:24:53;;;;;;;;;2.67;2.00;;;;;32.19;22.05;101993.00;4999393;28;45416;-64
2022/07/17 09:27:24;;;;;;;;;2.67;2.67;;;;;32.38;22.31;101994.34;5017292;28;45335;-64
2022/07/17 09:30:09;;;;;;;;;2.00;2.00;;;;;32.39;22.31;101990.50;5016465;28;45430;-64
2022/07/17 09:32:38;;;;;;;;;4.00;3.00;;;;;32.59;22.11;101993.47;5015589;28;46282;-65
2022/07/17 09:35:06;;;;;;;;;3.00;3.00;;;;;32.74;21.20;101992.78;5015844;28;45466;-64
2022/07/17 09:37:33;;;;;;;;;4.67;2.67;;;;;32.77;21.17;101989.50;5017160;28;45612;-63
2022/07/17 09:39:59;;;;;;;;;0.00;0.00;;;;;32.79;21.09;102001.06;5017058;28;46608;-64
2022/07/17 09:42:29;;;;;;;;;4.00;3.00;;;;;32.65;21.53;101986.94;5015578;28;46017;-64
2022/07/17 09:44:59;;;;;;;;;2.00;2.00;;;;;32.49;22.43;102011.81;5017053;28;45492;-64
2022/07/17 09:47:26;;;;;;;;;2.00;2.00;;;;;32.43;21.30;101991.66;4983016;28;45560;-64
2022/07/17 09:49:56;;;;;;;;;2.00;2.00;;;;;32.26;20.81;101980.75;5015994;28;46405;-65
2022/07/17 09:52:29;;;;;;;;;2.00;2.00;;;;;31.85;21.29;101913.44;5016793;28;45437;-64
2022/07/17 09:54:55;;;;;;;;;2.67;2.67;;;;;32.15;21.78;102006.47;5016801;28;45536;-65
2022/07/17 09:57:27;;;;;;;;;3.33;2.67;;;;;31.78;21.55;101990.59;5016647;28;45505;-66
2022/07/17 09:59:55;;;;;;;;;2.67;2.67;;;;;31.51;22.50;101977.84;5016947;28;45737;-64
2022/07/17 10:02:21;;;;;;;;;2.33;2.33;;;;;31.40;22.18;101982.34;5016982;28;45282;-65
2022/07/17 10:04:48;;;;;;;;;2.00;2.00;;;;;31.30;22.01;101983.06;5016727;28;45210;-64
2022/07/17 10:07:14;;;;;;;;;4.00;4.00;;;;;30.88;21.87;101968.91;5015858;28;45570;-66
2022/07/17 10:09:40;;;;;;;;;3.00;2.00;;;;;30.83;21.66;101988.03;5016677;28;46800;-63
2022/07/17 10:12:07;;;;;;;;;3.00;3.00;;;;;30.54;21.95;101990.81;5016526;28;45306;-65
2022/07/17 10:14:34;;;;;;;;;3.00;2.00;;;;;30.28;22.39;101994.16;5016432;28;45389;-64
2022/07/17 10:17:13;;;;;;;;;2.33;2.33;;;;;29.95;22.89;101979.22;5015311;28;45329;-64
2022/07/17 10:19:47;;;;;;;;;2.33;2.33;;;;;29.25;23.07;101902.63;5014402;28;45656;-65
2022/07/17 10:22:13;;;;;;;;;2.00;2.00;;;;;29.66;23.32;101999.44;5013057;28;45421;-64
2022/07/17 10:24:56;;;;;;;;;2.00;2.00;;;;;29.58;24.06;101997.03;5015754;28;45340;-63
2022/07/17 10:27:26;;;;;;;;;2.00;2.00;;;;;29.59;24.07;101999.53;5015719;28;45464;-64
2022/07/17 10:30:10;;;;;;;;;2.00;2.00;;;;;29.56;24.60;101986.31;5016366;28;45489;-65
2022/07/17 10:32:36;;;;;;;;;3.00;3.00;;;;;29.58;24.26;101999.78;5016505;28;45266;-65
2022/07/17 10:35:04;;;;;;;;;3.00;3.00;;;;;29.55;23.87;102003.00;5016673;28;45346;-65
2022/07/17 10:37:38;;;;;;;;;3.00;3.00;;;;;29.51;24.00;101996.34;5016912;28;45496;-64
2022/07/17 10:40:11;;;;;;;;;4.00;4.00;;;;;29.51;24.27;102007.31;5016278;28;45422;-65
2022/07/17 10:42:41;;;;;;;;;3.33;3.00;;;;;29.51;24.86;102004.56;5016253;28;45947;-66
2022/07/17 10:45:18;;;;;;;;;4.00;2.33;;;;;29.43;23.45;102000.22;5016177;28;45255;-65
2022/07/17 10:47:44;;;;;;;;;2.00;2.00;;;;;29.22;23.20;102003.56;5016396;28;45564;-63
2022/07/17 10:50:11;;;;;;;;;2.00;2.00;;;;;28.58;24.22;101934.91;5014587;28;47943;-63
2022/07/17 10:52:37;;;;;;;;;3.67;3.00;;;;;28.96;23.62;101993.91;5014663;28;45593;-63
2022/07/17 10:55:05;;;;;;;;;3.00;3.00;;;;;28.43;24.20;101913.50;5016464;28;45487;-66
2022/07/17 10:57:31;;;;;;;;;2.00;2.00;;;;;28.53;23.69;101923.84;5016644;28;45519;-68
2022/07/17 10:59:57;;;;;;;;;3.00;3.00;;;;;28.86;23.61;101993.69;4998200;28;48676;-67
2022/07/17 11:02:29;;;;;;;;;4.00;3.00;;;;;28.34;23.68;101903.09;5018446;28;45271;-66
2022/07/17 11:05:05;;;;;;;;;1.67;1.67;;;;;28.60;23.72;101962.88;5019881;28;45297;-68
2022/07/17 11:07:30;;;;;;;;;3.00;3.00;;;;;28.74;23.27;101985.41;5019875;28;45250;-64
2022/07/17 11:09:55;;;;;;;;;4.33;4.33;;;;;28.74;24.14;101975.28;5000306;28;48337;-64
2022/07/17 11:12:30;;;;;;;;;3.67;3.67;;;;;28.81;23.71;101980.63;5019640;28;45361;-64
2022/07/17 11:15:01;;;;;;;;;3.00;3.00;;;;;28.82;23.04;101984.22;5019502;28;45370;-63
2022/07/17 11:17:27;;;;;;;;;2.67;2.67;;;;;28.78;22.71;101992.06;5019337;28;45507;-64
2022/07/17 11:19:53;;;;;;;;;4.67;3.00;;;;;28.72;23.30;101991.09;5018873;28;46119;-64
2022/07/17 11:22:27;;;;;;;;;2.67;2.67;;;;;28.67;23.45;101985.50;5019274;28;45516;-63